CNY weather

Canyonlands Field
Moab, Utah, United States

Public forecast

Using degrees Fahrenheit for public forecast. Weather courtesy of forecast.io.

Current aviation weather report (METAR) for Canyonlands Field

Retrieved 2019/12/08 06:53 UTC (45 minutes ago):

KCNY 080653Z AUTO 00000KT 10SM BKN055 OVC070 04/03 A3003 RMK AO2 SLP164 T00390028 401000011

Aviation forecast (TAF) for Canyonlands Field

Retrieved 2019/12/08 06:42 UTC (56 minutes ago):

TAF KCNY 080539Z 0806/0906 VRB02KT P6SM VCSH BKN050 OVC070 TEMPO 0806/0810 -SHRA SCT028 OVC035 FM081400 VRB02KT P6SM VCSH OVC045 FM081700 VRB03KT 4SM -SHRASN BR OVC030 FM082200 31008KT P6SM OVC050 FM090000 VRB03KT P6SM BKN060